createdAt,value
2019-05-21T00:01:24.332Z,93965.53
2019-05-21T00:03:54.149Z,93970.30
2019-05-21T00:06:24.094Z,93966.87
2019-05-21T00:08:53.984Z,93978.33
2019-05-21T00:11:23.898Z,93969.80
2019-05-21T00:13:53.808Z,93976.13
2019-05-21T00:16:24.713Z,93981.33
2019-05-21T00:18:54.692Z,93972.33
2019-05-21T00:21:24.695Z,93975.84
2019-05-21T00:23:54.500Z,93969.16
2019-05-21T00:26:24.481Z,93970.22
2019-05-21T00:29:30.637Z,93976.19
2019-05-21T00:32:36.813Z,93974.17
2019-05-21T00:35:49.151Z,93974.39
2019-05-21T00:38:55.229Z,93978.48
2019-05-21T00:42:02.831Z,93986.14
2019-05-21T00:44:39.398Z,93981.73
2019-05-21T00:47:10.877Z,93991.09
2019-05-21T00:49:40.994Z,93992.84
2019-05-21T00:52:10.982Z,93997.97
2019-05-21T00:54:40.889Z,94011.42
2019-05-21T00:57:11.472Z,93994.80
2019-05-21T00:59:41.719Z,94001.59
2019-05-21T01:02:11.644Z,93994.86
2019-05-21T01:04:41.590Z,94005.13
2019-05-21T01:07:11.601Z,94005.18
2019-05-21T01:09:41.555Z,94017.24
2019-05-21T01:12:11.594Z,94006.97
2019-05-21T01:14:41.410Z,94007.06
2019-05-21T01:17:14.077Z,94010.91
2019-05-21T01:19:43.978Z,94009.13
2019-05-21T01:22:14.014Z,94008.44
2019-05-21T01:24:43.983Z,94011.09
2019-05-21T01:27:13.849Z,94007.24
2019-05-21T01:29:43.699Z,94008.44
2019-05-21T01:32:13.754Z,94019.21
2019-05-21T01:34:43.756Z,94017.81
2019-05-21T01:37:13.749Z,94020.88
2019-05-21T01:39:43.652Z,94024.76
2019-05-21T01:42:13.460Z,94026.09
2019-05-21T01:44:43.273Z,94026.88
2019-05-21T01:47:13.249Z,94026.82
2019-05-21T01:49:43.211Z,94024.80
2019-05-21T01:52:13.197Z,94025.58
2019-05-21T01:54:43.037Z,94030.83
2019-05-21T01:57:13.017Z,94033.97
2019-05-21T01:59:42.838Z,94036.64
2019-05-21T02:02:12.773Z,94029.83
2019-05-21T02:04:42.763Z,94028.27
2019-05-21T02:07:14.544Z,94029.78
2019-05-21T02:10:00.582Z,94026.05
2019-05-21T02:12:30.405Z,94036.14
2019-05-21T02:15:00.231Z,94026.05
2019-05-21T02:17:30.087Z,94032.57
2019-05-21T02:20:00.050Z,94036.55
2019-05-21T02:22:31.112Z,94041.45
2019-05-21T02:25:01.014Z,94041.28
2019-05-21T02:27:30.789Z,94044.98
2019-05-21T02:30:00.703Z,94042.06
2019-05-21T02:32:30.622Z,94051.17
2019-05-21T02:35:00.533Z,94076.30
2019-05-21T02:37:30.504Z,94080.55
2019-05-21T02:40:00.486Z,94058.98
2019-05-21T02:42:30.427Z,94074.00
2019-05-21T02:45:00.300Z,94085.16
2019-05-21T02:47:30.386Z,94064.23
2019-05-21T02:50:00.270Z,94088.17
2019-05-21T02:52:30.305Z,94078.18
2019-05-21T02:55:00.179Z,94083.66
2019-05-21T02:57:41.039Z,94091.86
2019-05-21T03:00:30.657Z,94088.01
2019-05-21T03:03:01.327Z,94102.46
2019-05-21T03:05:31.350Z,94092.86
2019-05-21T03:08:01.302Z,94098.95
2019-05-21T03:10:31.260Z,94094.81
2019-05-21T03:13:01.114Z,94097.11
2019-05-21T03:15:31.009Z,94092.36
2019-05-21T03:18:00.918Z,94103.38
2019-05-21T03:20:30.818Z,94117.36
2019-05-21T03:23:00.803Z,94100.03
2019-05-21T03:25:30.730Z,94114.88
2019-05-21T03:28:00.644Z,94110.30
2019-05-21T03:30:30.533Z,94111.13
2019-05-21T03:33:00.561Z,94114.94
2019-05-21T03:35:30.439Z,94114.76
2019-05-21T03:38:00.592Z,94151.01
2019-05-21T03:40:30.598Z,94125.25
2019-05-21T03:43:00.493Z,94125.69
2019-05-21T03:45:30.397Z,94115.70
2019-05-21T03:48:00.414Z,94131.22
2019-05-21T03:50:30.333Z,94151.51
2019-05-21T03:53:00.173Z,94134.61
2019-05-21T03:55:30.139Z,94151.51
2019-05-21T03:58:03.381Z,94137.19
2019-05-21T04:00:33.324Z,94141.70
2019-05-21T04:03:03.493Z,94155.20
2019-05-21T04:05:33.309Z,94160.77
2019-05-21T04:08:03.161Z,94148.37
2019-05-21T04:10:33.200Z,94144.03
2019-05-21T04:13:06.895Z,94161.83
2019-05-21T04:15:45.655Z,94168.59
2019-05-21T04:18:19.916Z,94166.12
2019-05-21T04:20:49.758Z,94165.00
2019-05-21T04:23:19.749Z,94165.91
2019-05-21T04:25:49.672Z,94168.41
2019-05-21T04:28:19.650Z,94171.19
2019-05-21T04:30:49.566Z,94163.12
2019-05-21T04:33:19.396Z,94170.59
2019-05-21T04:35:49.225Z,94194.25
2019-05-21T04:38:19.229Z,94175.55
2019-05-21T04:40:49.130Z,94176.01
2019-05-21T04:43:19.125Z,94200.38
2019-05-21T04:45:49.127Z,94182.58
2019-05-21T04:48:19.017Z,94188.90
2019-05-21T04:50:48.947Z,94189.38
2019-05-21T04:53:18.853Z,94179.30
2019-05-21T04:55:48.774Z,94185.55
2019-05-21T04:58:18.750Z,94188.93
2019-05-21T05:00:48.614Z,94185.77
2019-05-21T05:03:18.517Z,94196.19
2019-05-21T05:05:49.623Z,94196.66
2019-05-21T05:08:19.611Z,94192.56
2019-05-21T05:10:49.576Z,94199.97
2019-05-21T05:13:19.424Z,94212.61
2019-05-21T05:15:49.296Z,94196.69
2019-05-21T05:18:19.291Z,94215.73
2019-05-21T05:20:49.304Z,94202.34
2019-05-21T05:23:19.417Z,94211.13
2019-05-21T05:25:49.397Z,94218.61
2019-05-21T05:28:19.310Z,94245.80
2019-05-21T05:30:49.334Z,94229.98
2019-05-21T05:33:19.366Z,94216.93
2019-05-21T05:35:49.533Z,94217.80
2019-05-21T05:38:19.444Z,94238.19
2019-05-21T05:40:49.394Z,94218.45
2019-05-21T05:43:20.693Z,94235.61
2019-05-21T05:45:51.397Z,94210.55
2019-05-21T05:48:21.675Z,94229.63
2019-05-21T05:50:53.684Z,94241.59
2019-05-21T05:53:23.720Z,94252.78
2019-05-21T05:55:53.714Z,94233.17
2019-05-21T05:58:23.633Z,94238.25
2019-05-21T06:00:53.519Z,94253.48
2019-05-21T06:03:23.487Z,94249.20
2019-05-21T06:05:53.488Z,94253.41
2019-05-21T06:08:23.503Z,94248.66
2019-05-21T06:10:53.331Z,94252.27
2019-05-21T06:13:23.242Z,94284.70
2019-05-21T06:15:53.082Z,94257.06
2019-05-21T06:18:24.248Z,94259.99
2019-05-21T06:20:54.243Z,94269.37
2019-05-21T06:23:24.152Z,94274.72
2019-05-21T06:25:54.059Z,94270.16
2019-05-21T06:28:25.116Z,94295.85
2019-05-21T06:30:55.013Z,94285.94
2019-05-21T06:33:25.026Z,94285.50
2019-05-21T06:35:54.997Z,94274.79
2019-05-21T06:38:24.839Z,94280.70
2019-05-21T06:40:54.741Z,94292.97
2019-05-21T06:43:24.666Z,94304.81
2019-05-21T06:45:54.571Z,94310.20
2019-05-21T06:48:24.463Z,94295.53
2019-05-21T06:50:54.465Z,94289.20
2019-05-21T06:53:24.457Z,94315.66
2019-05-21T06:55:54.364Z,94305.44
2019-05-21T06:58:24.367Z,94297.63
2019-05-21T07:00:54.285Z,94314.70
2019-05-21T07:03:24.229Z,94330.17
2019-05-21T07:05:58.968Z,94313.78
2019-05-21T07:08:34.272Z,94302.02
2019-05-21T07:10:57.310Z,94302.02
2019-05-21T07:13:30.926Z,94313.56
2019-05-21T07:15:59.826Z,94305.66
2019-05-21T07:18:29.911Z,94337.16
2019-05-21T07:20:59.911Z,94341.64
2019-05-21T07:23:29.918Z,94339.30
2019-05-21T07:25:59.827Z,94327.20
2019-05-21T07:28:29.702Z,94342.28
2019-05-21T07:30:59.592Z,94327.46
2019-05-21T07:33:29.606Z,94324.91
2019-05-21T07:35:59.579Z,94324.63
2019-05-21T07:38:29.773Z,94349.34
2019-05-21T07:40:59.904Z,94337.75
2019-05-21T07:43:29.907Z,94345.52
2019-05-21T07:45:59.891Z,94351.76
2019-05-21T07:48:29.855Z,94349.48
2019-05-21T07:50:59.813Z,94350.09
2019-05-21T07:53:29.828Z,94370.08
2019-05-21T07:55:59.838Z,94366.16
2019-05-21T07:58:29.761Z,94362.73
2019-05-21T08:01:01.269Z,94360.70
2019-05-21T08:03:31.212Z,94355.85
2019-05-21T08:06:01.266Z,94361.34
2019-05-21T08:08:31.226Z,94358.34
2019-05-21T08:11:01.223Z,94353.13
2019-05-21T08:13:32.235Z,94361.97
2019-05-21T08:16:02.249Z,94358.84
2019-05-21T08:18:32.172Z,94366.98
2019-05-21T08:21:02.224Z,94385.72
2019-05-21T08:23:32.187Z,94391.63
2019-05-21T08:26:02.096Z,94395.02
2019-05-21T08:28:31.964Z,94380.44
2019-05-21T08:31:02.457Z,94388.49
2019-05-21T08:33:32.537Z,94393.95
2019-05-21T08:36:02.575Z,94389.36
2019-05-21T08:38:32.489Z,94398.76
2019-05-21T08:41:02.487Z,94390.84
2019-05-21T08:43:32.419Z,94401.14
2019-05-21T08:46:02.389Z,94396.12
2019-05-21T08:48:33.456Z,94424.14
2019-05-21T08:51:03.372Z,94403.11
2019-05-21T08:53:33.448Z,94407.67
2019-05-21T08:56:03.434Z,94419.25
2019-05-21T08:58:33.363Z,94409.27
2019-05-21T09:01:03.383Z,94407.17
2019-05-21T09:03:33.386Z,94404.42
2019-05-21T09:06:03.397Z,94402.34
2019-05-21T09:08:33.332Z,94414.40
2019-05-21T09:11:03.323Z,94414.03
2019-05-21T09:13:33.318Z,94397.01
2019-05-21T09:16:03.307Z,94405.27
2019-05-21T09:18:33.239Z,94412.91
2019-05-21T09:21:03.173Z,94410.26
2019-05-21T09:23:33.229Z,94405.96
2019-05-21T09:26:03.177Z,94401.33
2019-05-21T09:28:33.204Z,94422.39
2019-05-21T09:31:03.038Z,94416.81
2019-05-21T09:33:32.971Z,94421.32
2019-05-21T09:36:02.867Z,94418.71
2019-05-21T09:38:32.747Z,94425.52
2019-05-21T09:41:02.734Z,94407.19
2019-05-21T09:43:32.584Z,94415.55
2019-05-21T09:46:02.508Z,94414.30
2019-05-21T09:48:32.498Z,94419.16
2019-05-21T09:51:02.522Z,94410.73
2019-05-21T09:53:32.460Z,94422.41
2019-05-21T09:56:21.396Z,94411.41
2019-05-21T09:58:51.643Z,94412.64
2019-05-21T10:01:27.640Z,94418.30
2019-05-21T10:03:58.637Z,94415.64
2019-05-21T10:06:28.743Z,94421.70
2019-05-21T10:08:59.689Z,94411.91
2019-05-21T10:11:31.199Z,94427.41
2019-05-21T10:14:01.000Z,94455.23
2019-05-21T10:16:30.915Z,94425.52
2019-05-21T10:19:00.763Z,94440.95
2019-05-21T10:21:30.748Z,94432.78
2019-05-21T10:24:00.611Z,94428.43
2019-05-21T10:26:30.686Z,94440.67
2019-05-21T10:29:00.872Z,94445.65
2019-05-21T10:31:30.872Z,94448.92
2019-05-21T10:34:00.863Z,94441.31
2019-05-21T10:36:30.844Z,94450.97
2019-05-21T10:39:00.765Z,94450.34
2019-05-21T10:41:32.360Z,94464.12
2019-05-21T10:44:02.483Z,94456.30
2019-05-21T10:46:32.489Z,94463.06
2019-05-21T10:49:02.478Z,94462.38
2019-05-21T10:51:32.401Z,94456.00
2019-05-21T10:54:03.191Z,94462.88
2019-05-21T10:56:46.742Z,94466.40
2019-05-21T10:59:04.898Z,94476.81
2019-05-21T11:01:53.840Z,94464.14
2019-05-21T11:04:28.885Z,94467.69
2019-05-21T11:06:58.875Z,94460.98
2019-05-21T11:09:28.919Z,94460.99
2019-05-21T11:11:58.847Z,94455.02
2019-05-21T11:14:28.843Z,94458.16
2019-05-21T11:16:58.787Z,94470.48
2019-05-21T11:19:28.735Z,94470.94
2019-05-21T11:21:58.714Z,94469.45
2019-05-21T11:24:28.678Z,94469.92
2019-05-21T11:26:58.680Z,94482.04
2019-05-21T11:29:28.668Z,94473.51
2019-05-21T11:31:59.265Z,94479.08
2019-05-21T11:34:29.098Z,94489.87
2019-05-21T11:36:59.037Z,94488.89
2019-05-21T11:39:28.946Z,94488.50
2019-05-21T11:41:58.951Z,94487.17
2019-05-21T11:44:28.949Z,94488.38
2019-05-21T11:46:58.956Z,94476.05
2019-05-21T11:49:28.897Z,94484.64
2019-05-21T11:51:58.880Z,94482.53
2019-05-21T11:54:28.763Z,94483.73
2019-05-21T11:56:59.127Z,94491.45
2019-05-21T11:59:29.144Z,94490.58
2019-05-21T12:01:59.064Z,94514.61
2019-05-21T12:04:28.976Z,94481.70
2019-05-21T12:07:02.746Z,94488.55
2019-05-21T12:09:31.593Z,94495.33
2019-05-21T12:12:01.579Z,94487.61
2019-05-21T12:14:31.579Z,94494.39
2019-05-21T12:17:01.511Z,94484.28
2019-05-21T12:19:31.461Z,94477.80
2019-05-21T12:22:02.453Z,94485.58
2019-05-21T12:24:32.508Z,94492.88
2019-05-21T12:27:02.437Z,94503.11
2019-05-21T12:29:34.353Z,94525.76
2019-05-21T12:32:04.245Z,94495.33
2019-05-21T12:34:34.226Z,94506.61
2019-05-21T12:37:04.539Z,94509.77
2019-05-21T12:39:34.589Z,94509.71
2019-05-21T12:42:04.639Z,94510.27
2019-05-21T12:44:34.688Z,94528.04
2019-05-21T12:47:04.658Z,94520.33
2019-05-21T12:49:34.665Z,94529.67
2019-05-21T12:52:04.813Z,94527.19
2019-05-21T12:54:34.742Z,94532.18
2019-05-21T12:57:04.854Z,94536.66
2019-05-21T12:59:34.880Z,94532.56
2019-05-21T13:02:04.853Z,94520.54
2019-05-21T13:04:34.813Z,94529.83
2019-05-21T13:07:04.924Z,94521.61
2019-05-21T13:09:34.980Z,94526.37
2019-05-21T13:12:04.958Z,94536.86
2019-05-21T13:14:34.910Z,94538.77
2019-05-21T13:17:04.926Z,94541.81
2019-05-21T13:19:34.830Z,94539.47
2019-05-21T13:22:04.903Z,94546.39
2019-05-21T13:24:34.933Z,94544.91
2019-05-21T13:27:05.007Z,94549.27
2019-05-21T13:29:35.076Z,94556.67
2019-05-21T13:32:05.047Z,94572.81
2019-05-21T13:34:34.970Z,94560.96
2019-05-21T13:37:06.039Z,94560.03
2019-05-21T13:39:49.451Z,94562.16
2019-05-21T13:42:08.887Z,94569.26
2019-05-21T13:44:38.900Z,94570.36
2019-05-21T13:47:08.916Z,94585.39
2019-05-21T13:49:38.855Z,94583.25
2019-05-21T13:52:09.871Z,94601.05
2019-05-21T13:54:39.831Z,94580.19
2019-05-21T13:57:09.908Z,94594.18
2019-05-21T13:59:39.849Z,94577.05
2019-05-21T14:02:13.095Z,94589.77
2019-05-21T14:04:43.192Z,94581.82
2019-05-21T14:07:13.186Z,94587.27
2019-05-21T14:09:44.772Z,94609.37
2019-05-21T14:12:14.753Z,94603.74
2019-05-21T14:14:44.665Z,94598.55
2019-05-21T14:17:14.532Z,94594.34
2019-05-21T14:19:45.894Z,94589.25
2019-05-21T14:22:15.853Z,94599.66
2019-05-21T14:24:45.782Z,94614.81
2019-05-21T14:27:15.785Z,94608.59
2019-05-21T14:29:45.711Z,94601.55
2019-05-21T14:32:15.646Z,94604.77
2019-05-21T14:35:00.146Z,94596.38
2019-05-21T14:37:17.188Z,94612.89
2019-05-21T14:39:47.148Z,94605.02
2019-05-21T14:42:18.024Z,94611.30
2019-05-21T14:44:48.025Z,94612.58
2019-05-21T14:47:19.026Z,94616.22
2019-05-21T14:49:48.904Z,94610.52
2019-05-21T14:52:18.864Z,94616.67
2019-05-21T14:54:48.870Z,94650.05
2019-05-21T14:57:18.831Z,94637.27
2019-05-21T14:59:48.867Z,94632.50
2019-05-21T15:02:18.941Z,94637.77
2019-05-21T15:04:48.927Z,94626.87
2019-05-21T15:07:19.043Z,94630.42
2019-05-21T15:09:53.169Z,94636.48
2019-05-21T15:12:20.763Z,94629.66
2019-05-21T15:14:50.700Z,94635.86
2019-05-21T15:17:20.691Z,94644.05
2019-05-21T15:19:53.577Z,94637.77
2019-05-21T15:22:24.512Z,94642.41
2019-05-21T15:24:54.536Z,94649.81
2019-05-21T15:27:24.493Z,94657.75
2019-05-21T15:29:57.154Z,94638.50
2019-05-21T15:32:27.049Z,94645.33
2019-05-21T15:34:57.652Z,94661.80
2019-05-21T15:37:27.568Z,94654.69
2019-05-21T15:39:57.427Z,94685.64
2019-05-21T15:42:29.258Z,94660.67
2019-05-21T15:44:59.177Z,94677.26
2019-05-21T15:47:29.193Z,94667.44
2019-05-21T15:49:59.140Z,94675.50
2019-05-21T15:52:29.136Z,94667.27
2019-05-21T15:55:00.145Z,94670.63
2019-05-21T15:57:30.155Z,94675.03
2019-05-21T16:00:00.179Z,94684.25
2019-05-21T16:02:30.223Z,94680.69
2019-05-21T16:05:00.151Z,94688.27
2019-05-21T16:07:30.066Z,94687.73
2019-05-21T16:10:00.024Z,94687.61
2019-05-21T16:12:29.852Z,94689.14
2019-05-21T16:14:59.715Z,94699.70
2019-05-21T16:17:29.638Z,94699.03
2019-05-21T16:19:59.632Z,94709.47
2019-05-21T16:22:30.698Z,94715.75
2019-05-21T16:25:00.612Z,94701.48
2019-05-21T16:27:30.484Z,94705.49
2019-05-21T16:30:00.400Z,94720.90
2019-05-21T16:32:30.507Z,94714.97
2019-05-21T16:35:00.818Z,94703.92
2019-05-21T16:37:31.829Z,94712.41
2019-05-21T16:40:01.795Z,94724.37
2019-05-21T16:42:31.838Z,94720.82
2019-05-21T16:45:01.963Z,94712.33
2019-05-21T16:47:44.517Z,94726.73
2019-05-21T16:50:04.025Z,94721.19
2019-05-21T16:52:34.289Z,94721.11
2019-05-21T16:55:04.511Z,94723.67
2019-05-21T16:57:34.522Z,94725.75
2019-05-21T17:00:05.452Z,94726.73
2019-05-21T17:02:35.506Z,94740.19
2019-05-21T17:05:05.651Z,94736.09
2019-05-21T17:07:35.641Z,94742.30
2019-05-21T17:10:06.626Z,94743.20
2019-05-21T17:12:36.629Z,94736.50
2019-05-21T17:15:06.883Z,94755.63
2019-05-21T17:17:37.079Z,94760.22
2019-05-21T17:20:07.640Z,94757.53
2019-05-21T17:22:38.813Z,94766.23
2019-05-21T17:25:09.300Z,94760.48
2019-05-21T17:27:39.274Z,94766.34
2019-05-21T17:30:09.781Z,94767.80
2019-05-21T17:32:39.912Z,94764.66
2019-05-21T17:35:10.540Z,94768.36
2019-05-21T17:37:40.546Z,94779.86
2019-05-21T17:40:10.745Z,94775.88
2019-05-21T17:42:40.719Z,94778.73
2019-05-21T17:45:12.038Z,94773.45
2019-05-21T17:47:42.174Z,94779.08
2019-05-21T17:50:12.535Z,94778.23
2019-05-21T17:52:42.611Z,94779.08
2019-05-21T17:55:14.082Z,94782.09
2019-05-21T17:57:44.383Z,94784.86
2019-05-21T18:00:18.385Z,94784.07
2019-05-21T18:02:48.373Z,94785.70
2019-05-21T18:05:19.423Z,94789.13
2019-05-21T18:07:49.346Z,94787.78
2019-05-21T18:10:19.739Z,94793.45
2019-05-21T18:12:50.195Z,94796.26
2019-05-21T18:15:20.392Z,94812.45
2019-05-21T18:17:50.622Z,94811.64
2019-05-21T18:20:21.109Z,94815.80
2019-05-21T18:22:52.532Z,94803.91
2019-05-21T18:25:23.413Z,94820.30
2019-05-21T18:27:53.385Z,94816.28
2019-05-21T18:30:23.606Z,94821.09
2019-05-21T18:32:54.172Z,94820.22
2019-05-21T18:35:25.246Z,94821.53
2019-05-21T18:37:55.314Z,94815.66
2019-05-21T18:40:25.428Z,94821.94
2019-05-21T18:42:55.410Z,94830.72
2019-05-21T18:45:26.460Z,94833.08
2019-05-21T18:47:56.323Z,94837.83
2019-05-21T18:50:35.734Z,94847.02
2019-05-21T18:52:58.240Z,94853.81
2019-05-21T18:55:28.338Z,94854.28
2019-05-21T18:57:58.459Z,94852.95
2019-05-21T19:00:28.407Z,94855.57
2019-05-21T19:02:58.325Z,94866.24
2019-05-21T19:05:28.460Z,94861.11
2019-05-21T19:07:59.740Z,94875.05
2019-05-21T19:10:29.778Z,94875.70
2019-05-21T19:13:00.909Z,94874.23
2019-05-21T19:15:31.524Z,94873.45
2019-05-21T19:18:01.460Z,94878.58
2019-05-21T19:20:31.299Z,94891.30
2019-05-21T19:23:01.188Z,94890.89
2019-05-21T19:25:31.024Z,94881.67
2019-05-21T19:28:01.042Z,94895.56
2019-05-21T19:30:31.271Z,94897.25
2019-05-21T19:33:01.303Z,94903.44
2019-05-21T19:35:33.167Z,94909.72
2019-05-21T19:38:02.947Z,94911.05
2019-05-21T19:40:33.143Z,94909.67
2019-05-21T19:43:03.054Z,94907.61
2019-05-21T19:45:33.137Z,94899.25
2019-05-21T19:48:03.105Z,94906.03
2019-05-21T19:50:33.574Z,94912.34
2019-05-21T19:53:03.490Z,94912.34
2019-05-21T19:55:33.863Z,94917.37
2019-05-21T19:58:03.975Z,94925.86
2019-05-21T20:00:36.228Z,94922.55
2019-05-21T20:03:06.679Z,94934.39
2019-05-21T20:05:36.787Z,94929.94
2019-05-21T20:08:06.816Z,94926.66
2019-05-21T20:10:37.027Z,94930.25
2019-05-21T20:13:07.360Z,94936.95
2019-05-21T20:15:37.563Z,94940.70
2019-05-21T20:18:07.937Z,94939.42
2019-05-21T20:20:38.724Z,94940.99
2019-05-21T20:23:10.492Z,94936.45
2019-05-21T20:25:55.466Z,94937.03
2019-05-21T20:28:13.022Z,94952.94
2019-05-21T20:30:44.824Z,94944.85
2019-05-21T20:33:15.270Z,94953.44
2019-05-21T20:35:45.614Z,94946.33
2019-05-21T20:38:15.472Z,94954.42
2019-05-21T20:40:45.754Z,94958.67
2019-05-21T20:43:15.621Z,94951.45
2019-05-21T20:45:49.580Z,94953.83
2019-05-21T20:48:21.656Z,94960.14
2019-05-21T20:50:51.922Z,94962.33
2019-05-21T20:53:21.921Z,94966.61
2019-05-21T20:55:51.938Z,94958.37
2019-05-21T20:58:22.177Z,94974.66
2019-05-21T21:01:02.215Z,94967.73
2019-05-21T21:03:33.681Z,94966.86
2019-05-21T21:06:04.222Z,94971.73
2019-05-21T21:08:36.599Z,94967.50
2019-05-21T21:11:09.187Z,94971.09
2019-05-21T21:13:39.725Z,94976.92
2019-05-21T21:16:10.429Z,94970.30
2019-05-21T21:18:41.504Z,94975.00
2019-05-21T21:21:11.420Z,94979.20
2019-05-21T21:23:42.616Z,94973.88
2019-05-21T21:26:13.296Z,94973.42
2019-05-21T21:28:43.339Z,94967.89
2019-05-21T21:31:13.292Z,94973.42
2019-05-21T21:33:43.284Z,94984.38
2019-05-21T21:36:13.470Z,94983.45
2019-05-21T21:38:43.787Z,94975.36
2019-05-21T21:41:14.900Z,94981.87
2019-05-21T21:43:44.921Z,94973.72
2019-05-21T21:46:14.830Z,94986.84
2019-05-21T21:48:45.795Z,94980.03
2019-05-21T21:51:17.470Z,94981.48
2019-05-21T21:53:48.268Z,94979.30
2019-05-21T21:56:18.870Z,94990.75
2019-05-21T21:58:48.783Z,94990.06
2019-05-21T22:01:44.413Z,94997.20
2019-05-21T22:04:16.798Z,94993.55
2019-05-21T22:06:48.647Z,94992.17
2019-05-21T22:09:29.746Z,94987.89
2019-05-21T22:12:02.397Z,94994.15
2019-05-21T22:14:49.088Z,94989.22
2019-05-21T22:17:08.215Z,94997.21
2019-05-21T22:19:39.127Z,94994.73
2019-05-21T22:22:10.509Z,94992.17
2019-05-21T22:24:41.736Z,94993.16
2019-05-21T22:27:11.950Z,94992.87
2019-05-21T22:29:41.949Z,95002.55
2019-05-21T22:32:11.977Z,94984.05
2019-05-21T22:34:41.966Z,95000.33
2019-05-21T22:37:14.993Z,94993.55
2019-05-21T22:39:47.717Z,94999.67
2019-05-21T22:42:17.813Z,94999.38
2019-05-21T22:44:47.915Z,95002.73
2019-05-21T22:47:18.089Z,95007.28
2019-05-21T22:49:48.130Z,95014.09
2019-05-21T22:52:18.116Z,95006.30
2019-05-21T22:54:48.108Z,95012.41
2019-05-21T22:57:18.047Z,95014.88
2019-05-21T22:59:48.027Z,95014.88
2019-05-21T23:02:23.246Z,95010.63
2019-05-21T23:04:53.256Z,95012.61
2019-05-21T23:07:23.250Z,95007.47
2019-05-21T23:09:54.639Z,95013.98
2019-05-21T23:12:24.804Z,95007.08
2019-05-21T23:14:54.781Z,95011.62
2019-05-21T23:17:26.748Z,95009.55
2019-05-21T23:20:10.158Z,95005.30
2019-05-21T23:22:42.579Z,95016.55
2019-05-21T23:25:12.829Z,95012.70
2019-05-21T23:27:42.895Z,95005.10
2019-05-21T23:30:14.366Z,95012.57
2019-05-21T23:32:45.449Z,95015.08
2019-05-21T23:35:17.135Z,95014.28
2019-05-21T23:37:48.989Z,95015.77
2019-05-21T23:40:18.980Z,95011.62
2019-05-21T23:42:49.226Z,95007.97
2019-05-21T23:45:19.717Z,95006.45
2019-05-21T23:47:50.288Z,95014.58
2019-05-21T23:50:20.598Z,95008.46
2019-05-21T23:52:51.103Z,95014.28
2019-05-21T23:55:21.084Z,95018.23
2019-05-21T23:57:51.908Z,95014.98
